createdAt,value
2018-07-24T00:00:07.843Z,47.80
2018-07-24T00:02:35.949Z,48.00
2018-07-24T00:05:04.667Z,47.90
2018-07-24T00:07:33.326Z,48.40
2018-07-24T00:10:02.711Z,48.60
2018-07-24T00:12:30.869Z,50.80
2018-07-24T00:14:58.881Z,49.40
2018-07-24T00:17:27.046Z,49.50
2018-07-24T00:19:54.753Z,49.60
2018-07-24T00:22:22.440Z,50.00
2018-07-24T00:24:50.130Z,50.30
2018-07-24T00:27:17.924Z,50.50
2018-07-24T00:29:45.611Z,50.40
2018-07-24T00:32:13.324Z,51.20
2018-07-24T00:34:41.280Z,52.20
2018-07-24T00:37:09.004Z,52.00
2018-07-24T00:39:37.552Z,52.30
2018-07-24T00:42:05.765Z,52.80
2018-07-24T00:44:33.637Z,53.20
2018-07-24T00:47:02.041Z,54.20
2018-07-24T00:49:29.704Z,53.90
2018-07-24T00:54:25.747Z,53.90
2018-07-24T00:56:55.800Z,54.00
2018-07-24T00:59:23.514Z,53.80
2018-07-24T01:01:51.199Z,53.60
2018-07-24T01:04:18.862Z,53.00
2018-07-24T01:06:46.539Z,52.40
2018-07-24T01:09:14.299Z,52.20
2018-07-24T01:11:42.017Z,52.60
2018-07-24T01:14:10.090Z,52.50
2018-07-24T01:16:37.838Z,52.70
2018-07-24T01:19:05.532Z,52.30
2018-07-24T01:21:33.221Z,52.40
2018-07-24T01:24:00.965Z,52.20
2018-07-24T01:26:28.696Z,52.20
2018-07-24T01:28:56.382Z,52.60
2018-07-24T01:31:24.049Z,52.60
2018-07-24T01:33:51.712Z,52.20
2018-07-24T01:36:19.398Z,52.40
2018-07-24T01:38:47.101Z,52.40
2018-07-24T01:41:14.786Z,52.80
2018-07-24T01:43:42.459Z,52.30
2018-07-24T01:46:10.131Z,52.20
2018-07-24T01:48:37.781Z,52.40
2018-07-24T01:51:05.507Z,52.30
2018-07-24T01:53:33.215Z,52.40
2018-07-24T01:56:00.890Z,53.00
2018-07-24T01:58:28.565Z,52.30
2018-07-24T02:01:00.887Z,52.30
2018-07-24T02:03:28.559Z,52.50
2018-07-24T02:05:56.273Z,52.60
2018-07-24T02:08:23.965Z,52.60
2018-07-24T02:10:51.667Z,52.60
2018-07-24T02:13:19.411Z,52.60
2018-07-24T02:15:47.099Z,53.10
2018-07-24T02:18:14.851Z,52.90
2018-07-24T02:20:42.549Z,52.90
2018-07-24T02:23:10.269Z,53.20
2018-07-24T02:25:37.949Z,53.20
2018-07-24T02:28:06.558Z,53.30
2018-07-24T02:30:34.281Z,53.30
2018-07-24T02:33:02.003Z,53.30
2018-07-24T02:35:29.796Z,53.50
2018-07-24T02:40:25.225Z,53.50
2018-07-24T02:42:52.931Z,53.30
2018-07-24T02:45:20.617Z,53.30
2018-07-24T02:47:48.286Z,53.40
2018-07-24T02:50:16.063Z,53.60
2018-07-24T02:52:43.773Z,53.60
2018-07-24T02:57:39.243Z,53.90
2018-07-24T03:00:06.961Z,54.30
2018-07-24T03:02:34.641Z,54.40
2018-07-24T03:05:02.396Z,54.40
2018-07-24T03:07:30.118Z,54.50
2018-07-24T03:09:57.818Z,54.80
2018-07-24T03:12:25.534Z,54.80
2018-07-24T03:14:53.283Z,54.40
2018-07-24T03:17:21.211Z,54.70
2018-07-24T03:19:49.042Z,54.50
2018-07-24T03:22:16.726Z,54.70
2018-07-24T03:24:44.377Z,54.70
2018-07-24T03:27:12.038Z,54.90
2018-07-24T03:29:39.743Z,54.90
2018-07-24T03:32:07.430Z,54.80
2018-07-24T03:34:35.112Z,54.70
2018-07-24T03:37:02.810Z,55.30
2018-07-24T03:39:30.524Z,55.70
2018-07-24T03:41:58.221Z,56.40
2018-07-24T03:44:25.895Z,56.90
2018-07-24T03:46:53.558Z,57.50
2018-07-24T03:49:21.230Z,57.10
2018-07-24T03:51:48.930Z,56.90
2018-07-24T03:54:16.642Z,56.60
2018-07-24T03:56:44.317Z,56.70
2018-07-24T03:59:12.023Z,57.30
2018-07-24T04:01:39.714Z,56.40
2018-07-24T04:04:07.444Z,56.50
2018-07-24T04:06:35.155Z,56.40
2018-07-24T04:09:05.116Z,56.30
2018-07-24T04:11:32.794Z,56.50
2018-07-24T04:14:00.462Z,56.40
2018-07-24T04:18:55.865Z,56.40
2018-07-24T04:21:23.554Z,58.50
2018-07-24T04:23:51.245Z,57.00
2018-07-24T04:26:18.940Z,57.30
2018-07-24T04:28:46.653Z,57.60
2018-07-24T04:31:14.585Z,58.20
2018-07-24T04:33:42.742Z,58.20
2018-07-24T04:36:10.673Z,58.30
2018-07-24T04:38:38.400Z,58.20
2018-07-24T04:41:06.233Z,58.10
2018-07-24T04:43:33.924Z,58.30
2018-07-24T04:46:01.667Z,58.50
2018-07-24T04:48:29.431Z,58.50
2018-07-24T04:50:57.105Z,58.80
2018-07-24T04:53:24.776Z,58.60
2018-07-24T04:55:52.451Z,58.50
2018-07-24T04:58:20.125Z,58.10
2018-07-24T05:00:47.820Z,57.90
2018-07-24T05:03:15.577Z,57.40
2018-07-24T05:05:43.240Z,57.60
2018-07-24T05:08:10.890Z,57.20
2018-07-24T05:10:38.573Z,57.10
2018-07-24T05:13:06.267Z,56.90
2018-07-24T05:15:33.930Z,57.00
2018-07-24T05:18:01.619Z,57.00
2018-07-24T05:20:29.298Z,56.80
2018-07-24T05:25:24.693Z,55.90
2018-07-24T05:27:52.391Z,55.70
2018-07-24T05:30:20.063Z,56.30
2018-07-24T05:32:47.802Z,56.60
2018-07-24T05:35:15.521Z,56.50
2018-07-24T05:37:43.253Z,56.50
2018-07-24T05:40:11.038Z,56.80
2018-07-24T05:42:38.727Z,56.60
2018-07-24T05:45:06.503Z,56.00
2018-07-24T05:47:34.319Z,55.50
2018-07-24T05:50:02.023Z,55.10
2018-07-24T05:52:29.755Z,55.00
2018-07-24T05:54:57.514Z,54.90
2018-07-24T05:57:25.181Z,55.30
2018-07-24T05:59:52.898Z,55.50
2018-07-24T06:02:20.583Z,55.60
2018-07-24T06:04:48.571Z,56.00
2018-07-24T06:07:16.270Z,55.90
2018-07-24T06:09:43.982Z,55.50
2018-07-24T06:12:11.870Z,54.80
2018-07-24T06:14:39.547Z,54.50
2018-07-24T06:17:07.320Z,54.60
2018-07-24T06:19:34.979Z,53.90
2018-07-24T06:22:02.699Z,53.50
2018-07-24T06:24:30.439Z,53.60
2018-07-24T06:26:58.152Z,53.40
2018-07-24T06:29:25.869Z,53.70
2018-07-24T06:31:53.566Z,53.30
2018-07-24T06:34:21.266Z,53.10
2018-07-24T06:36:48.980Z,52.80
2018-07-24T06:39:16.680Z,53.10
2018-07-24T06:41:44.388Z,52.30
2018-07-24T06:44:12.285Z,52.30
2018-07-24T06:46:40.083Z,52.40
2018-07-24T06:49:08.206Z,52.20
2018-07-24T06:51:35.940Z,52.00
2018-07-24T06:54:03.810Z,51.20
2018-07-24T06:56:31.528Z,51.00
2018-07-24T06:58:59.622Z,50.90
2018-07-24T07:01:27.321Z,51.90
2018-07-24T07:03:55.011Z,50.70
2018-07-24T07:06:23.101Z,50.00
2018-07-24T07:08:50.878Z,49.70
2018-07-24T07:11:18.595Z,49.30
2018-07-24T07:13:46.307Z,49.00
2018-07-24T07:16:14.235Z,48.40
2018-07-24T07:18:41.974Z,47.90
2018-07-24T07:21:09.773Z,47.70
2018-07-24T07:23:38.198Z,47.70
2018-07-24T07:26:06.043Z,47.20
2018-07-24T07:28:33.741Z,46.90
2018-07-24T07:31:01.560Z,46.80
2018-07-24T07:33:29.223Z,46.20
2018-07-24T07:35:56.898Z,45.10
2018-07-24T07:38:24.642Z,45.70
2018-07-24T07:40:52.382Z,44.70
2018-07-24T07:43:20.084Z,44.00
2018-07-24T07:45:47.769Z,42.90
2018-07-24T07:48:15.480Z,42.10
2018-07-24T07:50:43.203Z,40.70
2018-07-24T07:53:10.909Z,40.10
2018-07-24T07:55:38.589Z,39.60
2018-07-24T07:58:06.569Z,38.50
2018-07-24T08:00:35.731Z,37.60
2018-07-24T08:03:03.647Z,36.90
2018-07-24T08:05:31.349Z,36.00
2018-07-24T08:07:59.086Z,36.40
2018-07-24T08:10:26.853Z,35.70
2018-07-24T08:12:54.594Z,34.80
2018-07-24T08:15:22.296Z,32.70
2018-07-24T08:17:50.039Z,32.70
2018-07-24T08:20:17.781Z,32.90
2018-07-24T08:22:45.506Z,32.00
2018-07-24T08:25:13.176Z,31.60
2018-07-24T08:27:40.866Z,31.00
2018-07-24T08:32:36.287Z,30.70
2018-07-24T08:35:04.039Z,30.50
2018-07-24T08:37:31.777Z,31.40
2018-07-24T08:39:59.490Z,31.40
2018-07-24T08:44:57.554Z,29.80
2018-07-24T08:47:26.460Z,29.80
2018-07-24T08:49:54.152Z,29.70
2018-07-24T08:52:21.868Z,30.50
2018-07-24T08:54:49.856Z,29.10
2018-07-24T08:57:17.398Z,30.00
2018-07-24T08:59:45.091Z,29.80
2018-07-24T09:02:12.849Z,28.20
2018-07-24T09:04:40.541Z,27.20
2018-07-24T09:07:08.314Z,26.70
2018-07-24T09:09:36.095Z,26.70
2018-07-24T09:14:31.518Z,26.60
2018-07-24T09:16:59.215Z,25.80
2018-07-24T09:19:26.925Z,25.80
2018-07-24T09:21:54.581Z,26.00
2018-07-24T09:24:22.244Z,25.70
2018-07-24T09:26:49.933Z,25.10
2018-07-24T09:29:17.622Z,25.00
2018-07-24T09:31:45.303Z,25.00
2018-07-24T09:34:12.994Z,24.90
2018-07-24T09:36:41.128Z,24.90
2018-07-24T09:39:09.800Z,24.80
2018-07-24T09:41:37.988Z,25.80
2018-07-24T09:44:05.776Z,25.90
2018-07-24T09:46:33.475Z,26.10
2018-07-24T09:49:01.181Z,26.80
2018-07-24T09:51:28.883Z,26.40
2018-07-24T09:56:24.339Z,26.30
2018-07-24T09:58:52.054Z,26.40
2018-07-24T10:01:25.411Z,26.90
2018-07-24T10:03:53.355Z,26.80
2018-07-24T10:08:49.933Z,26.40
2018-07-24T10:11:17.674Z,26.40
2018-07-24T10:13:45.878Z,27.20
2018-07-24T10:16:13.561Z,27.60
2018-07-24T10:18:42.351Z,28.20
2018-07-24T10:21:10.650Z,28.60
2018-07-24T10:23:38.411Z,28.70
2018-07-24T10:26:06.413Z,28.50
2018-07-24T10:28:34.226Z,28.50
2018-07-24T10:31:01.964Z,28.20
2018-07-24T10:33:29.755Z,27.80
2018-07-24T10:35:57.541Z,28.10
2018-07-24T10:38:25.347Z,27.30
2018-07-24T10:40:53.068Z,27.50
2018-07-24T10:43:20.786Z,27.00
2018-07-24T10:45:48.465Z,27.70
2018-07-24T10:48:16.145Z,26.90
2018-07-24T10:50:43.826Z,26.10
2018-07-24T10:53:11.535Z,25.40
2018-07-24T10:55:39.305Z,24.40
2018-07-24T10:58:07.007Z,23.70
2018-07-24T11:00:34.722Z,23.50
2018-07-24T11:03:02.443Z,23.30
2018-07-24T11:05:30.210Z,23.10
2018-07-24T11:07:57.990Z,22.80
2018-07-24T11:10:25.710Z,22.80
2018-07-24T11:12:53.429Z,21.90
2018-07-24T11:15:21.119Z,21.60
2018-07-24T11:17:48.786Z,21.00
2018-07-24T11:20:16.499Z,20.70
2018-07-24T11:22:44.285Z,20.30
2018-07-24T11:25:11.893Z,20.40
2018-07-24T11:27:39.577Z,20.50
2018-07-24T11:30:07.270Z,20.80
2018-07-24T11:32:34.952Z,20.50
2018-07-24T11:35:02.703Z,20.30
2018-07-24T11:37:30.420Z,19.70
2018-07-24T11:39:58.170Z,19.60
2018-07-24T11:42:26.462Z,19.00
2018-07-24T11:44:54.239Z,19.30
2018-07-24T11:47:22.778Z,19.20
2018-07-24T11:49:52.248Z,19.00
2018-07-24T11:52:20.091Z,19.50
2018-07-24T11:54:47.802Z,19.30
2018-07-24T11:57:15.702Z,19.00
2018-07-24T11:59:44.495Z,18.70
2018-07-24T12:02:12.195Z,18.80
2018-07-24T12:04:39.936Z,18.60
2018-07-24T12:07:07.566Z,18.40
2018-07-24T12:09:35.734Z,18.20
2018-07-24T12:12:04.821Z,18.40
2018-07-24T12:14:32.702Z,18.50
2018-07-24T12:17:00.522Z,18.50
2018-07-24T12:19:28.236Z,18.70
2018-07-24T12:21:55.918Z,18.90
2018-07-24T12:24:23.581Z,19.60
2018-07-24T12:26:51.281Z,19.80
2018-07-24T12:29:19.357Z,19.90
2018-07-24T12:31:48.273Z,20.00
2018-07-24T12:34:16.961Z,20.20
2018-07-24T12:36:45.652Z,20.10
2018-07-24T12:39:14.247Z,20.00
2018-07-24T12:41:43.290Z,20.00
2018-07-24T12:44:11.234Z,19.70
2018-07-24T12:46:39.351Z,18.90
2018-07-24T12:49:11.025Z,18.80
2018-07-24T12:51:39.807Z,18.80
2018-07-24T12:54:07.481Z,18.90
2018-07-24T12:56:35.982Z,19.20
2018-07-24T12:59:03.740Z,18.80
2018-07-24T13:01:31.413Z,18.10
2018-07-24T13:03:59.096Z,17.50
2018-07-24T13:06:26.798Z,17.10
2018-07-24T13:11:22.390Z,17.20
2018-07-24T13:16:18.576Z,17.60
2018-07-24T13:18:46.337Z,17.30
2018-07-24T13:21:14.351Z,17.50
2018-07-24T13:23:42.106Z,17.00
2018-07-24T13:26:09.866Z,18.10
2018-07-24T13:28:37.608Z,18.50
2018-07-24T13:33:33.073Z,18.50
2018-07-24T13:36:00.762Z,18.60
2018-07-24T13:38:28.734Z,18.90
2018-07-24T13:40:56.466Z,19.10
2018-07-24T13:43:24.448Z,19.20
2018-07-24T13:45:52.180Z,19.20
2018-07-24T13:48:19.900Z,18.60
2018-07-24T13:50:47.620Z,18.00
2018-07-24T13:53:15.368Z,17.80
2018-07-24T13:55:43.039Z,17.90
2018-07-24T13:58:10.851Z,17.70
2018-07-24T14:00:38.594Z,17.80
2018-07-24T14:03:06.350Z,17.80
2018-07-24T14:05:34.200Z,18.00
2018-07-24T14:08:01.842Z,17.60
2018-07-24T14:10:29.608Z,17.90
2018-07-24T14:12:57.325Z,17.80
2018-07-24T14:15:25.096Z,17.70
2018-07-24T14:17:52.827Z,17.70
2018-07-24T14:20:20.584Z,17.50
2018-07-24T14:22:48.303Z,18.00
2018-07-24T14:25:16.024Z,17.70
2018-07-24T14:27:43.783Z,17.50
2018-07-24T14:30:11.495Z,18.00
2018-07-24T14:32:39.310Z,17.70
2018-07-24T14:35:07.003Z,17.80
2018-07-24T14:37:34.792Z,17.80
2018-07-24T14:40:02.581Z,18.00
2018-07-24T14:42:30.312Z,17.90
2018-07-24T14:44:58.232Z,17.80
2018-07-24T14:47:25.981Z,17.80
2018-07-24T14:49:53.709Z,17.90
2018-07-24T14:52:21.510Z,18.50
2018-07-24T14:54:49.230Z,18.70
2018-07-24T14:57:16.957Z,18.50
2018-07-24T14:59:44.672Z,18.50
2018-07-24T15:02:12.416Z,18.10
2018-07-24T15:04:40.233Z,18.20
2018-07-24T15:07:07.945Z,18.00
2018-07-24T15:09:35.698Z,18.30
2018-07-24T15:12:03.471Z,18.70
2018-07-24T15:14:31.182Z,19.00
2018-07-24T15:16:58.912Z,19.10
2018-07-24T15:19:26.594Z,18.50
2018-07-24T15:21:54.354Z,18.30
2018-07-24T15:24:22.105Z,17.70
2018-07-24T15:26:49.859Z,17.30
2018-07-24T15:29:18.874Z,16.90
2018-07-24T15:31:46.712Z,16.80
2018-07-24T15:34:14.525Z,17.00
2018-07-24T15:36:42.203Z,17.00
2018-07-24T15:39:12.218Z,17.50
2018-07-24T15:41:40.376Z,17.80
2018-07-24T15:44:08.633Z,17.90
2018-07-24T15:46:37.706Z,17.60
2018-07-24T15:49:05.837Z,17.70
2018-07-24T15:51:34.004Z,17.70
2018-07-24T15:54:01.758Z,17.30
2018-07-24T15:56:29.497Z,17.00
2018-07-24T15:58:57.590Z,17.00
2018-07-24T16:01:26.014Z,16.90
2018-07-24T16:03:55.184Z,17.00
2018-07-24T16:06:23.018Z,16.80
2018-07-24T16:11:20.467Z,16.20
2018-07-24T16:13:48.189Z,16.30
2018-07-24T16:16:15.918Z,16.70
2018-07-24T16:18:43.640Z,16.50
2018-07-24T16:21:12.613Z,16.80
2018-07-24T16:23:40.297Z,16.60
2018-07-24T16:26:08.197Z,17.10
2018-07-24T16:28:35.890Z,17.20
2018-07-24T16:31:03.707Z,17.70
2018-07-24T16:33:31.432Z,17.80
2018-07-24T16:36:00.258Z,17.50
2018-07-24T16:38:28.046Z,17.90
2018-07-24T16:40:55.742Z,17.60
2018-07-24T16:43:23.470Z,17.40
2018-07-24T16:45:51.352Z,17.90
2018-07-24T16:48:20.055Z,17.60
2018-07-24T16:50:47.850Z,17.60
2018-07-24T16:53:15.770Z,17.70
2018-07-24T16:55:44.587Z,17.50
2018-07-24T16:58:12.301Z,17.50
2018-07-24T17:00:40.126Z,17.30
2018-07-24T17:03:08.049Z,18.70
2018-07-24T17:05:36.950Z,17.90
2018-07-24T17:08:05.028Z,18.40
2018-07-24T17:10:32.771Z,18.20
2018-07-24T17:13:00.455Z,18.20
2018-07-24T17:17:55.914Z,17.70
2018-07-24T17:20:23.629Z,18.00
2018-07-24T17:22:51.335Z,18.10
2018-07-24T17:25:19.051Z,18.30
2018-07-24T17:27:46.826Z,18.30
2018-07-24T17:30:14.447Z,18.10
2018-07-24T17:35:09.990Z,18.10
2018-07-24T17:37:38.433Z,18.10
2018-07-24T17:40:06.140Z,18.30
2018-07-24T17:42:33.840Z,18.60
2018-07-24T17:45:01.564Z,18.60
2018-07-24T17:47:29.277Z,18.60
2018-07-24T17:49:56.958Z,18.40
2018-07-24T17:52:24.662Z,18.40
2018-07-24T17:57:20.298Z,18.40
2018-07-24T17:59:48.029Z,18.50
2018-07-24T18:02:15.666Z,18.10
2018-07-24T18:04:43.615Z,18.20
2018-07-24T18:07:12.141Z,20.80
2018-07-24T18:09:39.838Z,20.80
2018-07-24T18:12:07.854Z,21.20
2018-07-24T18:14:35.684Z,21.70
2018-07-24T18:17:03.435Z,21.90
2018-07-24T18:19:31.110Z,21.90
2018-07-24T18:21:58.834Z,22.00
2018-07-24T18:24:26.528Z,22.50
2018-07-24T18:26:54.195Z,22.80
2018-07-24T18:29:22.023Z,23.20
2018-07-24T18:31:49.732Z,23.70
2018-07-24T18:34:17.398Z,24.00
2018-07-24T18:36:45.130Z,24.60
2018-07-24T18:39:12.809Z,24.90
2018-07-24T18:41:40.504Z,25.20
2018-07-24T18:44:08.206Z,25.50
2018-07-24T18:46:35.877Z,26.00
2018-07-24T18:49:03.614Z,26.50
2018-07-24T18:51:31.320Z,27.40
2018-07-24T18:53:59.009Z,27.90
2018-07-24T18:56:26.688Z,27.80
2018-07-24T18:58:54.604Z,28.30
2018-07-24T19:01:22.294Z,28.70
2018-07-24T19:03:50.009Z,29.00
2018-07-24T19:06:17.692Z,29.40
2018-07-24T19:08:45.381Z,29.80
2018-07-24T19:11:13.156Z,30.40
2018-07-24T19:13:40.762Z,31.00
2018-07-24T19:16:10.040Z,31.50
2018-07-24T19:18:38.040Z,32.70
2018-07-24T19:21:05.778Z,32.40
2018-07-24T19:23:33.493Z,33.00
2018-07-24T19:26:01.222Z,33.30
2018-07-24T19:28:28.907Z,33.60
2018-07-24T19:30:56.617Z,33.90
2018-07-24T19:33:24.554Z,34.30
2018-07-24T19:35:53.008Z,34.70
2018-07-24T19:38:20.729Z,34.90
2018-07-24T19:40:48.418Z,35.30
2018-07-24T19:43:16.143Z,35.50
2018-07-24T19:45:43.901Z,35.10
2018-07-24T19:48:11.631Z,35.30
2018-07-24T19:50:39.333Z,35.50
2018-07-24T19:53:07.030Z,35.30
2018-07-24T19:55:34.734Z,35.20
2018-07-24T19:58:02.513Z,35.20
2018-07-24T20:00:30.261Z,35.00
2018-07-24T20:02:58.004Z,34.60
2018-07-24T20:05:25.674Z,33.60
2018-07-24T20:07:53.373Z,33.80
2018-07-24T20:10:21.144Z,33.90
2018-07-24T20:12:48.810Z,33.70
2018-07-24T20:15:19.010Z,34.00
2018-07-24T20:17:46.903Z,33.80
2018-07-24T20:20:15.392Z,33.50
2018-07-24T20:25:10.943Z,33.30
2018-07-24T20:27:38.658Z,33.60
2018-07-24T20:30:06.419Z,33.90
2018-07-24T20:32:34.146Z,34.20
2018-07-24T20:35:01.941Z,34.40
2018-07-24T20:37:29.658Z,34.90
2018-07-24T20:39:57.362Z,35.20
2018-07-24T20:42:25.051Z,35.50
2018-07-24T20:44:52.753Z,36.20
2018-07-24T20:47:20.450Z,36.40
2018-07-24T20:49:48.250Z,36.50
2018-07-24T20:52:15.983Z,36.50
2018-07-24T20:54:43.706Z,36.40
2018-07-24T20:57:11.413Z,36.70
2018-07-24T20:59:39.115Z,35.90
2018-07-24T21:02:07.151Z,35.40
2018-07-24T21:04:34.888Z,35.30
2018-07-24T21:07:02.586Z,35.10
2018-07-24T21:09:30.284Z,35.10
2018-07-24T21:11:57.976Z,34.70
2018-07-24T21:14:25.654Z,34.80
2018-07-24T21:16:53.359Z,34.80
2018-07-24T21:19:21.167Z,34.60
2018-07-24T21:21:48.898Z,34.40
2018-07-24T21:26:44.333Z,34.00
2018-07-24T21:29:12.046Z,34.50
2018-07-24T21:31:39.749Z,34.30
2018-07-24T21:34:07.492Z,34.30
2018-07-24T21:36:35.190Z,34.30
2018-07-24T21:39:04.934Z,34.50
2018-07-24T21:41:32.627Z,34.40
2018-07-24T21:44:00.330Z,34.20
2018-07-24T21:46:28.041Z,34.10
2018-07-24T21:51:23.434Z,34.40
2018-07-24T21:53:51.163Z,35.20
2018-07-24T21:56:18.896Z,34.70
2018-07-24T21:58:46.626Z,34.30
2018-07-24T22:01:14.355Z,34.40
2018-07-24T22:03:42.475Z,34.60
2018-07-24T22:06:10.240Z,34.10
2018-07-24T22:08:38.354Z,34.20
2018-07-24T22:11:06.228Z,34.00
2018-07-24T22:13:34.398Z,34.20
2018-07-24T22:16:02.127Z,34.40
2018-07-24T22:18:29.875Z,34.30
2018-07-24T22:20:57.576Z,34.10
2018-07-24T22:23:25.285Z,34.30
2018-07-24T22:25:52.982Z,34.00
2018-07-24T22:28:20.702Z,34.10
2018-07-24T22:30:48.428Z,34.60
2018-07-24T22:33:16.115Z,34.20
2018-07-24T22:35:43.814Z,34.20
2018-07-24T22:38:11.552Z,34.20
2018-07-24T22:40:39.253Z,34.50
2018-07-24T22:43:06.986Z,34.80
2018-07-24T22:45:34.685Z,35.00
2018-07-24T22:48:02.406Z,35.30
2018-07-24T22:50:30.190Z,35.70
2018-07-24T22:55:25.620Z,36.20
2018-07-24T22:57:53.578Z,36.40
2018-07-24T23:00:21.269Z,36.60
2018-07-24T23:02:48.972Z,36.90
2018-07-24T23:05:16.873Z,36.80
2018-07-24T23:07:44.589Z,37.00
2018-07-24T23:10:12.303Z,37.90
2018-07-24T23:12:40.157Z,39.30
2018-07-24T23:15:07.841Z,37.80
2018-07-24T23:17:35.559Z,37.80
2018-07-24T23:20:03.325Z,39.80
2018-07-24T23:22:31.042Z,37.80
2018-07-24T23:24:58.802Z,38.30
2018-07-24T23:27:26.524Z,38.70
2018-07-24T23:29:54.226Z,39.30
2018-07-24T23:32:21.913Z,39.70
2018-07-24T23:34:49.635Z,40.40
2018-07-24T23:37:17.358Z,41.00
2018-07-24T23:39:45.035Z,41.40
2018-07-24T23:42:12.729Z,41.70
2018-07-24T23:44:40.494Z,42.10
2018-07-24T23:47:08.181Z,42.30
2018-07-24T23:49:35.877Z,42.30
2018-07-24T23:52:03.612Z,42.20
2018-07-24T23:54:31.277Z,42.10
2018-07-24T23:56:59.089Z,42.10
2018-07-24T23:59:27.066Z,42.30
